sensor_id;sensor_type;location;lat;lon;timestamp;pressure;altitude;pressure_sealevel;temperature;humidity
63111;BME280;49201;53.426;10.300;2023-04-24T00:00:15;100090.84;;;12.82;100.00
63111;BME280;49201;53.426;10.300;2023-04-24T00:02:43;100098.56;;;12.84;100.00
63111;BME280;49201;53.426;10.300;2023-04-24T00:05:15;100094.28;;;12.83;100.00
63111;BME280;49201;53.426;10.300;2023-04-24T00:07:45;100080.56;;;12.82;100.00
63111;BME280;49201;53.426;10.300;2023-04-24T00:10:11;100086.59;;;12.81;100.00
63111;BME280;49201;53.426;10.300;2023-04-24T00:12:37;100082.34;;;12.76;100.00
63111;BME280;49201;53.426;10.300;2023-04-24T00:15:03;100082.31;;;12.80;100.00
63111;BME280;49201;53.426;10.300;2023-04-24T00:17:29;100079.75;;;12.82;100.00
63111;BME280;49201;53.426;10.300;2023-04-24T00:19:54;100067.75;;;12.78;100.00
63111;BME280;49201;53.426;10.300;2023-04-24T00:22:27;100076.31;;;12.75;100.00
63111;BME280;49201;53.426;10.300;2023-04-24T00:24:53;100073.75;;;12.77;100.00
63111;BME280;49201;53.426;10.300;2023-04-24T00:27:19;100084.03;;;12.77;100.00
63111;BME280;49201;53.426;10.300;2023-04-24T00:29:44;100078.88;;;12.72;100.00
63111;BME280;49201;53.426;10.300;2023-04-24T00:32:10;100078.03;;;12.69;100.00
63111;BME280;49201;53.426;10.300;2023-04-24T00:34:35;100083.19;;;12.69;100.00
63111;BME280;49201;53.426;10.300;2023-04-24T00:37:01;100078.03;;;12.67;100.00
63111;BME280;49201;53.426;10.300;2023-04-24T00:39:27;100075.50;;;12.63;100.00
63111;BME280;49201;53.426;10.300;2023-04-24T00:41:53;100068.63;;;12.65;100.00
63111;BME280;49201;53.426;10.300;2023-04-24T00:44:19;100072.91;;;12.61;100.00
63111;BME280;49201;53.426;10.300;2023-04-24T00:46:45;100062.63;;;12.57;100.00
63111;BME280;49201;53.426;10.300;2023-04-24T00:49:12;100063.50;;;12.59;100.00
63111;BME280;49201;53.426;10.300;2023-04-24T00:51:38;100060.94;;;12.59;100.00
63111;BME280;49201;53.426;10.300;2023-04-24T00:54:03;100060.91;;;12.62;100.00
63111;BME280;49201;53.426;10.300;2023-04-24T00:56:29;100060.09;;;12.55;100.00
63111;BME280;49201;53.426;10.300;2023-04-24T00:58:55;100052.41;;;12.55;100.00
63111;BME280;49201;53.426;10.300;2023-04-24T01:01:21;100046.38;;;12.52;100.00
63111;BME280;49201;53.426;10.300;2023-04-24T01:03:49;100055.81;;;12.56;100.00
63111;BME280;49201;53.426;10.300;2023-04-24T01:06:15;100053.25;;;12.51;100.00
63111;BME280;49201;53.426;10.300;2023-04-24T01:08:41;100055.81;;;12.50;100.00
63111;BME280;49201;53.426;10.300;2023-04-24T01:11:07;100047.25;;;12.49;100.00
63111;BME280;49201;53.426;10.300;2023-04-24T01:13:33;100058.38;;;12.47;100.00
63111;BME280;49201;53.426;10.300;2023-04-24T01:15:59;100059.22;;;12.50;100.00
63111;BME280;49201;53.426;10.300;2023-04-24T01:18:26;100062.66;;;12.49;100.00
63111;BME280;49201;53.426;10.300;2023-04-24T01:20:53;100060.94;;;12.47;100.00
63111;BME280;49201;53.426;10.300;2023-04-24T01:23:22;100054.97;;;12.45;100.00
63111;BME280;49201;53.426;10.300;2023-04-24T01:25:50;100051.53;;;12.38;100.00
63111;BME280;49201;53.426;10.300;2023-04-24T01:28:17;100055.81;;;12.29;100.00
63111;BME280;49201;53.426;10.300;2023-04-24T01:30:44;100059.25;;;12.32;100.00
63111;BME280;49201;53.426;10.300;2023-04-24T01:33:10;100054.09;;;12.34;100.00
63111;BME280;49201;53.426;10.300;2023-04-24T01:35:37;100048.97;;;12.34;100.00
63111;BME280;49201;53.426;10.300;2023-04-24T01:38:03;100046.41;;;12.31;100.00
63111;BME280;49201;53.426;10.300;2023-04-24T01:40:30;100038.72;;;12.26;100.00
63111;BME280;49201;53.426;10.300;2023-04-24T01:42:57;100046.41;;;12.25;100.00
63111;BME280;49201;53.426;10.300;2023-04-24T01:45:23;100044.72;;;12.21;100.00
63111;BME280;49201;53.426;10.300;2023-04-24T01:47:49;100045.56;;;12.20;100.00
63111;BME280;49201;53.426;10.300;2023-04-24T01:50:16;100038.72;;;12.14;100.00
63111;BME280;49201;53.426;10.300;2023-04-24T01:52:42;100044.69;;;12.13;100.00
63111;BME280;49201;53.426;10.300;2023-04-24T01:55:09;100048.13;;;12.12;100.00
63111;BME280;49201;53.426;10.300;2023-04-24T01:57:35;100042.16;;;12.10;100.00
63111;BME280;49201;53.426;10.300;2023-04-24T02:00:01;100028.44;;;12.11;100.00
63111;BME280;49201;53.426;10.300;2023-04-24T02:02:41;100042.13;;;12.06;100.00
63111;BME280;49201;53.426;10.300;2023-04-24T02:05:08;100027.59;;;11.99;100.00
63111;BME280;49201;53.426;10.300;2023-04-24T02:07:35;100030.16;;;11.99;100.00
63111;BME280;49201;53.426;10.300;2023-04-24T02:10:01;100026.72;;;11.97;100.00
63111;BME280;49201;53.426;10.300;2023-04-24T02:12:26;100026.75;;;11.92;100.00
63111;BME280;49201;53.426;10.300;2023-04-24T02:14:52;100033.59;;;11.87;100.00
63111;BME280;49201;53.426;10.300;2023-04-24T02:17:18;100030.16;;;11.84;100.00
63111;BME280;49201;53.426;10.300;2023-04-24T02:19:44;100042.13;;;11.83;100.00
63111;BME280;49201;53.426;10.300;2023-04-24T02:22:10;100037.84;;;11.75;100.00
63111;BME280;49201;53.426;10.300;2023-04-24T02:24:36;100033.56;;;11.75;100.00
63111;BME280;49201;53.426;10.300;2023-04-24T02:27:02;100044.66;;;11.71;100.00
63111;BME280;49201;53.426;10.300;2023-04-24T02:29:28;100041.25;;;11.68;100.00
63111;BME280;49201;53.426;10.300;2023-04-24T02:31:53;100042.09;;;11.65;100.00
63111;BME280;49201;53.426;10.300;2023-04-24T02:34:19;100035.22;;;11.58;100.00
63111;BME280;49201;53.426;10.300;2023-04-24T02:36:44;100041.22;;;11.62;100.00
63111;BME280;49201;53.426;10.300;2023-04-24T02:39:10;100036.03;;;11.51;100.00
63111;BME280;49201;53.426;10.300;2023-04-24T02:41:35;100027.50;;;11.55;100.00
63111;BME280;49201;53.426;10.300;2023-04-24T02:44:01;100033.50;;;11.53;100.00
63111;BME280;49201;53.426;10.300;2023-04-24T02:46:26;100034.34;;;11.52;100.00
63111;BME280;49201;53.426;10.300;2023-04-24T02:48:52;100037.75;;;11.49;100.00
63111;BME280;49201;53.426;10.300;2023-04-24T02:51:17;100031.78;;;11.55;100.00
63111;BME280;49201;53.426;10.300;2023-04-24T02:53:43;100040.31;;;11.49;100.00
63111;BME280;49201;53.426;10.300;2023-04-24T02:56:08;100031.78;;;11.52;100.00
63111;BME280;49201;53.426;10.300;2023-04-24T02:58:33;100029.19;;;11.55;100.00
63111;BME280;49201;53.426;10.300;2023-04-24T03:00:59;100035.22;;;11.57;100.00
63111;BME280;49201;53.426;10.300;2023-04-24T03:03:25;100026.66;;;11.56;100.00
63111;BME280;49201;53.426;10.300;2023-04-24T03:05:51;100036.91;;;11.50;100.00
63111;BME280;49201;53.426;10.300;2023-04-24T03:08:17;100031.75;;;11.46;100.00
63111;BME280;49201;53.426;10.300;2023-04-24T03:10:43;100027.50;;;11.46;100.00
63111;BME280;49201;53.426;10.300;2023-04-24T03:13:08;100031.75;;;11.46;100.00
63111;BME280;49201;53.426;10.300;2023-04-24T03:15:33;100031.78;;;11.44;100.00
63111;BME280;49201;53.426;10.300;2023-04-24T03:17:59;100036.03;;;11.38;100.00
63111;BME280;49201;53.426;10.300;2023-04-24T03:20:26;100029.16;;;11.26;100.00
63111;BME280;49201;53.426;10.300;2023-04-24T03:22:53;100031.69;;;11.22;100.00
63111;BME280;49201;53.426;10.300;2023-04-24T03:25:18;100027.41;;;11.22;100.00
63111;BME280;49201;53.426;10.300;2023-04-24T03:27:44;100033.38;;;11.18;100.00
63111;BME280;49201;53.426;10.300;2023-04-24T03:30:27;100033.31;;;11.05;100.00
63111;BME280;49201;53.426;10.300;2023-04-24T03:32:57;100027.38;;;11.10;100.00
63111;BME280;49201;53.426;10.300;2023-04-24T03:35:27;100021.38;;;11.08;100.00
63111;BME280;49201;53.426;10.300;2023-04-24T03:37:53;100025.63;;;11.05;100.00
63111;BME280;49201;53.426;10.300;2023-04-24T03:40:53;100026.50;;;11.05;100.00
63111;BME280;49201;53.426;10.300;2023-04-24T03:43:33;100022.19;;;10.97;100.00
63111;BME280;49201;53.426;10.300;2023-04-24T03:46:01;100022.22;;;10.98;100.00
63111;BME280;49201;53.426;10.300;2023-04-24T03:48:28;100017.09;;;10.98;100.00
63111;BME280;49201;53.426;10.300;2023-04-24T03:50:54;100025.63;;;10.96;100.00
63111;BME280;49201;53.426;10.300;2023-04-24T03:53:19;100024.69;;;10.91;100.00
63111;BME280;49201;53.426;10.300;2023-04-24T03:55:46;100033.25;;;10.90;100.00
63111;BME280;49201;53.426;10.300;2023-04-24T03:58:11;100034.91;;;10.79;100.00
63111;BME280;49201;53.426;10.300;2023-04-24T04:00:37;100024.63;;;10.74;100.00
63111;BME280;49201;53.426;10.300;2023-04-24T04:03:25;100030.59;;;10.72;100.00
63111;BME280;49201;53.426;10.300;2023-04-24T04:05:51;100031.41;;;10.68;100.00
63111;BME280;49201;53.426;10.300;2023-04-24T04:08:16;100024.56;;;10.62;100.00
63111;BME280;49201;53.426;10.300;2023-04-24T04:10:42;100030.53;;;10.64;100.00
63111;BME280;49201;53.426;10.300;2023-04-24T04:13:07;100030.53;;;10.63;100.00
63111;BME280;49201;53.426;10.300;2023-04-24T04:15:34;100022.84;;;10.60;100.00
63111;BME280;49201;53.426;10.300;2023-04-24T04:17:59;100026.25;;;10.56;100.00
63111;BME280;49201;53.426;10.300;2023-04-24T04:20:25;100027.94;;;10.55;100.00
63111;BME280;49201;53.426;10.300;2023-04-24T04:22:51;100029.63;;;10.52;100.00
63111;BME280;49201;53.426;10.300;2023-04-24T04:25:23;100034.69;;;10.47;100.00
63111;BME280;49201;53.426;10.300;2023-04-24T04:27:50;100038.13;;;10.48;100.00
63111;BME280;49201;53.426;10.300;2023-04-24T04:30:16;100038.09;;;10.43;100.00
63111;BME280;49201;53.426;10.300;2023-04-24T04:32:53;100038.03;;;10.36;100.00
63111;BME280;49201;53.426;10.300;2023-04-24T04:35:20;100038.88;;;10.30;100.00
63111;BME280;49201;53.426;10.300;2023-04-24T04:37:45;100049.03;;;10.26;100.00
63111;BME280;49201;53.426;10.300;2023-04-24T04:40:17;100043.09;;;10.25;100.00
63111;BME280;49201;53.426;10.300;2023-04-24T04:42:57;100043.88;;;10.20;100.00
63111;BME280;49201;53.426;10.300;2023-04-24T04:45:24;100039.66;;;10.20;100.00
63111;BME280;49201;53.426;10.300;2023-04-24T04:48:10;100042.22;;;10.25;100.00
63111;BME280;49201;53.426;10.300;2023-04-24T04:50:39;100040.50;;;10.22;100.00
63111;BME280;49201;53.426;10.300;2023-04-24T04:53:06;100042.28;;;10.29;100.00
63111;BME280;49201;53.426;10.300;2023-04-24T04:55:36;100026.94;;;10.34;100.00
63111;BME280;49201;53.426;10.300;2023-04-24T04:58:09;100038.09;;;10.42;100.00
63111;BME280;49201;53.426;10.300;2023-04-24T05:00:35;100037.22;;;10.38;100.00
63111;BME280;49201;53.426;10.300;2023-04-24T05:03:12;100036.41;;;10.45;100.00
63111;BME280;49201;53.426;10.300;2023-04-24T05:05:38;100033.88;;;10.51;100.00
63111;BME280;49201;53.426;10.300;2023-04-24T05:08:07;100038.16;;;10.55;100.00
63111;BME280;49201;53.426;10.300;2023-04-24T05:10:34;100034.78;;;10.59;100.00
63111;BME280;49201;53.426;10.300;2023-04-24T05:13:03;100040.81;;;10.66;100.00
63111;BME280;49201;53.426;10.300;2023-04-24T05:15:29;100041.72;;;10.77;100.00
63111;BME280;49201;53.426;10.300;2023-04-24T05:17:56;100042.63;;;10.86;100.00
63111;BME280;49201;53.426;10.300;2023-04-24T05:20:22;100041.81;;;10.92;100.00
63111;BME280;49201;53.426;10.300;2023-04-24T05:22:48;100036.72;;;11.01;100.00
63111;BME280;49201;53.426;10.300;2023-04-24T05:25:14;100033.34;;;11.14;100.00
63111;BME280;49201;53.426;10.300;2023-04-24T05:27:46;100032.53;;;11.22;100.00
63111;BME280;49201;53.426;10.300;2023-04-24T05:30:14;100038.53;;;11.21;100.00
63111;BME280;49201;53.426;10.300;2023-04-24T05:32:39;100041.06;;;11.12;100.00
63111;BME280;49201;53.426;10.300;2023-04-24T05:35:05;100038.44;;;11.06;100.00
63111;BME280;49201;53.426;10.300;2023-04-24T05:37:31;100042.72;;;11.09;100.00
63111;BME280;49201;53.426;10.300;2023-04-24T05:39:57;100048.72;;;11.14;100.00
63111;BME280;49201;53.426;10.300;2023-04-24T05:42:22;100051.34;;;11.21;100.00
63111;BME280;49201;53.426;10.300;2023-04-24T05:44:49;100051.38;;;11.41;100.00
63111;BME280;49201;53.426;10.300;2023-04-24T05:47:14;100059.13;;;11.54;100.00
63111;BME280;49201;53.426;10.300;2023-04-24T05:49:40;100041.22;;;11.65;100.00
63111;BME280;49201;53.426;10.300;2023-04-24T05:52:07;100049.78;;;11.71;100.00
63111;BME280;49201;53.426;10.300;2023-04-24T05:54:34;100042.97;;;11.79;100.00
63111;BME280;49201;53.426;10.300;2023-04-24T05:57:01;100041.25;;;11.92;100.00
63111;BME280;49201;53.426;10.300;2023-04-24T05:59:42;100048.13;;;11.96;100.00
63111;BME280;49201;53.426;10.300;2023-04-24T06:02:07;100039.59;;;12.10;100.00
63111;BME280;49201;53.426;10.300;2023-04-24T06:04:33;100039.56;;;12.27;100.00
63111;BME280;49201;53.426;10.300;2023-04-24T06:06:59;100029.31;;;12.37;100.00
63111;BME280;49201;53.426;10.300;2023-04-24T06:09:25;100029.31;;;12.37;100.00
63111;BME280;49201;53.426;10.300;2023-04-24T06:11:51;100036.13;;;12.35;100.00
63111;BME280;49201;53.426;10.300;2023-04-24T06:14:20;100019.00;;;12.42;100.00
63111;BME280;49201;53.426;10.300;2023-04-24T06:17:12;100033.53;;;12.65;100.00
63111;BME280;49201;53.426;10.300;2023-04-24T06:19:39;99995.88;;;12.61;100.00
63111;BME280;49201;53.426;10.300;2023-04-24T06:22:05;99997.56;;;12.64;100.00
63111;BME280;49201;53.426;10.300;2023-04-24T06:24:31;100004.38;;;12.83;100.00
63111;BME280;49201;53.426;10.300;2023-04-24T06:26:57;100029.19;;;12.85;100.00
63111;BME280;49201;53.426;10.300;2023-04-24T06:29:24;100002.63;;;12.91;100.00
63111;BME280;49201;53.426;10.300;2023-04-24T06:31:49;100012.03;;;12.95;100.00
63111;BME280;49201;53.426;10.300;2023-04-24T06:34:15;100012.88;;;13.03;100.00
63111;BME280;49201;53.426;10.300;2023-04-24T06:36:40;100001.75;;;13.04;100.00
63111;BME280;49201;53.426;10.300;2023-04-24T06:39:06;100003.44;;;13.11;100.00
63111;BME280;49201;53.426;10.300;2023-04-24T06:41:32;99986.25;;;13.19;100.00
63111;BME280;49201;53.426;10.300;2023-04-24T06:43:57;99970.78;;;13.27;100.00
63111;BME280;49201;53.426;10.300;2023-04-24T06:46:22;99989.63;;;13.29;100.00
63111;BME280;49201;53.426;10.300;2023-04-24T06:48:53;99975.84;;;13.42;100.00
63111;BME280;49201;53.426;10.300;2023-04-24T06:51:23;99919.19;;;13.52;100.00
63111;BME280;49201;53.426;10.300;2023-04-24T06:53:49;99913.91;;;13.70;100.00
63111;BME280;49201;53.426;10.300;2023-04-24T06:56:15;99857.44;;;13.55;100.00
63111;BME280;49201;53.426;10.300;2023-04-24T06:58:41;99859.09;;;13.61;100.00
63111;BME280;49201;53.426;10.300;2023-04-24T07:01:06;99863.31;;;13.68;100.00
63111;BME280;49201;53.426;10.300;2023-04-24T07:03:32;99841.81;;;13.75;100.00
63111;BME280;49201;53.426;10.300;2023-04-24T07:05:57;99824.56;;;13.84;100.00
63111;BME280;49201;53.426;10.300;2023-04-24T07:08:23;99817.66;;;13.88;100.00
63111;BME280;49201;53.426;10.300;2023-04-24T07:10:49;99836.19;;;14.21;100.00
63111;BME280;49201;53.426;10.300;2023-04-24T07:13:15;99823.09;;;14.39;100.00
63111;BME280;49201;53.426;10.300;2023-04-24T07:15:41;99750.25;;;14.30;100.00
63111;BME280;49201;53.426;10.300;2023-04-24T07:18:06;99817.28;;;14.24;100.00
63111;BME280;49201;53.426;10.300;2023-04-24T07:20:32;99744.91;;;14.45;100.00
63111;BME280;49201;53.426;10.300;2023-04-24T07:22:58;99741.66;;;14.31;100.00
63111;BME280;49201;53.426;10.300;2023-04-24T07:25:23;99757.44;;;14.69;100.00
63111;BME280;49201;53.426;10.300;2023-04-24T07:27:49;99676.16;;;14.48;100.00
63111;BME280;49201;53.426;10.300;2023-04-24T07:30:14;99712.41;;;14.35;100.00
63111;BME280;49201;53.426;10.300;2023-04-24T07:32:40;99718.94;;;14.57;100.00
63111;BME280;49201;53.426;10.300;2023-04-24T07:35:05;99696.63;;;14.56;100.00
63111;BME280;49201;53.426;10.300;2023-04-24T07:37:31;99697.09;;;14.82;100.00
63111;BME280;49201;53.426;10.300;2023-04-24T07:39:56;99661.81;;;14.85;100.00
63111;BME280;49201;53.426;10.300;2023-04-24T07:42:22;99672.69;;;15.02;100.00
63111;BME280;49201;53.426;10.300;2023-04-24T07:44:48;99668.38;;;15.03;100.00
63111;BME280;49201;53.426;10.300;2023-04-24T07:47:13;99624.00;;;15.31;100.00
63111;BME280;49201;53.426;10.300;2023-04-24T07:49:41;99600.91;;;15.68;100.00
63111;BME280;49201;53.426;10.300;2023-04-24T07:52:07;99598.22;;;15.74;100.00
63111;BME280;49201;53.426;10.300;2023-04-24T07:54:33;99589.81;;;15.20;100.00
63111;BME280;49201;53.426;10.300;2023-04-24T07:56:58;99582.16;;;15.16;100.00
63111;BME280;49201;53.426;10.300;2023-04-24T07:59:24;99603.28;;;15.36;100.00
63111;BME280;49201;53.426;10.300;2023-04-24T08:01:49;99585.72;;;15.10;100.00
63111;BME280;49201;53.426;10.300;2023-04-24T08:04:15;99603.78;;;15.09;100.00
63111;BME280;49201;53.426;10.300;2023-04-24T08:06:40;99619.50;;;14.97;100.00
63111;BME280;49201;53.426;10.300;2023-04-24T08:09:06;99658.34;;;15.35;100.00
63111;BME280;49201;53.426;10.300;2023-04-24T08:11:31;99621.63;;;15.65;100.00
63111;BME280;49201;53.426;10.300;2023-04-24T08:13:57;99625.53;;;15.43;100.00
63111;BME280;49201;53.426;10.300;2023-04-24T08:16:22;99642.88;;;15.77;100.00
63111;BME280;49201;53.426;10.300;2023-04-24T08:18:51;99586.00;;;16.18;100.00
63111;BME280;49201;53.426;10.300;2023-04-24T08:21:17;99581.41;;;16.29;100.00
63111;BME280;49201;53.426;10.300;2023-04-24T08:23:44;99555.00;;;16.18;96.62
63111;BME280;49201;53.426;10.300;2023-04-24T08:26:11;99567.06;;;16.18;96.53
63111;BME280;49201;53.426;10.300;2023-04-24T08:28:37;99568.53;;;15.91;97.25
63111;BME280;49201;53.426;10.300;2023-04-24T08:31:03;99541.44;;;16.09;93.66
63111;BME280;49201;53.426;10.300;2023-04-24T08:33:29;99556.22;;;16.39;96.58
63111;BME280;49201;53.426;10.300;2023-04-24T08:36:03;99542.00;;;16.88;96.05
63111;BME280;49201;53.426;10.300;2023-04-24T08:38:29;99549.81;;;16.87;96.78
63111;BME280;49201;53.426;10.300;2023-04-24T08:40:58;99555.50;;;16.32;93.90
63111;BME280;49201;53.426;10.300;2023-04-24T08:43:25;99644.59;;;15.34;100.00
63111;BME280;49201;53.426;10.300;2023-04-24T08:45:52;99678.03;;;15.40;100.00
63111;BME280;49201;53.426;10.300;2023-04-24T08:48:18;99740.84;;;15.38;100.00
63111;BME280;49201;53.426;10.300;2023-04-24T08:50:44;99751.50;;;15.15;100.00
63111;BME280;49201;53.426;10.300;2023-04-24T08:53:10;99757.22;;;14.81;100.00
63111;BME280;49201;53.426;10.300;2023-04-24T08:55:37;99803.06;;;14.61;100.00
63111;BME280;49201;53.426;10.300;2023-04-24T08:58:03;99819.38;;;14.61;100.00
63111;BME280;49201;53.426;10.300;2023-04-24T09:00:29;99842.84;;;14.40;100.00
63111;BME280;49201;53.426;10.300;2023-04-24T09:02:55;99859.44;;;14.11;100.00
63111;BME280;49201;53.426;10.300;2023-04-24T09:05:22;99886.09;;;14.05;100.00
63111;BME280;49201;53.426;10.300;2023-04-24T09:07:56;99888.78;;;13.96;100.00
63111;BME280;49201;53.426;10.300;2023-04-24T09:10:24;99907.41;;;14.22;100.00
63111;BME280;49201;53.426;10.300;2023-04-24T09:12:51;99885.94;;;14.25;100.00
63111;BME280;49201;53.426;10.300;2023-04-24T09:15:18;99917.72;;;14.24;100.00
63111;BME280;49201;53.426;10.300;2023-04-24T09:17:44;99876.88;;;14.63;100.00
63111;BME280;49201;53.426;10.300;2023-04-24T09:20:10;99808.66;;;14.88;100.00
63111;BME280;49201;53.426;10.300;2023-04-24T09:22:36;99751.69;;;15.56;100.00
63111;BME280;49201;53.426;10.300;2023-04-24T09:25:03;99660.03;;;15.80;95.04
63111;BME280;49201;53.426;10.300;2023-04-24T09:27:31;99631.81;;;16.10;95.79
63111;BME280;49201;53.426;10.300;2023-04-24T09:29:58;99617.66;;;15.88;95.57
63111;BME280;49201;53.426;10.300;2023-04-24T09:32:24;99649.19;;;15.63;99.11
63111;BME280;49201;53.426;10.300;2023-04-24T09:35:11;99596.75;;;16.00;87.87
63111;BME280;49201;53.426;10.300;2023-04-24T09:37:39;99645.09;;;15.53;100.00
63111;BME280;49201;53.426;10.300;2023-04-24T09:40:21;99697.28;;;15.67;100.00
63111;BME280;49201;53.426;10.300;2023-04-24T09:42:57;99725.97;;;15.52;100.00
63111;BME280;49201;53.426;10.300;2023-04-24T09:45:36;99674.25;;;15.11;98.64
63111;BME280;49201;53.426;10.300;2023-04-24T09:48:02;99666.41;;;15.15;98.75
63111;BME280;49201;53.426;10.300;2023-04-24T09:50:30;99688.31;;;14.93;100.00
63111;BME280;49201;53.426;10.300;2023-04-24T09:53:03;99731.44;;;14.82;100.00
63111;BME280;49201;53.426;10.300;2023-04-24T09:55:29;99765.22;;;14.63;100.00
63111;BME280;49201;53.426;10.300;2023-04-24T09:57:59;99725.88;;;15.56;100.00
63111;BME280;49201;53.426;10.300;2023-04-24T10:00:33;99709.94;;;15.32;100.00
63111;BME280;49201;53.426;10.300;2023-04-24T10:03:05;99713.38;;;14.84;100.00
63111;BME280;49201;53.426;10.300;2023-04-24T10:05:33;99757.22;;;14.81;100.00
63111;BME280;49201;53.426;10.300;2023-04-24T10:08:05;99719.53;;;14.75;100.00
63111;BME280;49201;53.426;10.300;2023-04-24T10:10:39;99726.53;;;14.67;100.00
63111;BME280;49201;53.426;10.300;2023-04-24T10:13:04;99711.03;;;14.69;100.00
63111;BME280;49201;53.426;10.300;2023-04-24T10:15:30;99698.41;;;15.04;98.28
63111;BME280;49201;53.426;10.300;2023-04-24T10:17:58;99689.63;;;15.15;99.11
63111;BME280;49201;53.426;10.300;2023-04-24T10:20:28;99697.75;;;14.93;100.00
63111;BME280;49201;53.426;10.300;2023-04-24T10:22:57;99770.00;;;14.88;100.00
63111;BME280;49201;53.426;10.300;2023-04-24T10:25:24;99775.84;;;14.99;100.00
63111;BME280;49201;53.426;10.300;2023-04-24T10:27:51;99755.81;;;14.60;100.00
63111;BME280;49201;53.426;10.300;2023-04-24T10:30:18;99764.50;;;14.55;100.00
63111;BME280;49201;53.426;10.300;2023-04-24T10:32:44;99770.19;;;14.78;100.00
63111;BME280;49201;53.426;10.300;2023-04-24T10:35:12;99806.41;;;14.67;100.00
63111;BME280;49201;53.426;10.300;2023-04-24T10:37:55;99794.06;;;14.89;100.00
63111;BME280;49201;53.426;10.300;2023-04-24T10:40:30;99753.81;;;14.82;100.00
63111;BME280;49201;53.426;10.300;2023-04-24T10:42:57;99770.88;;;14.87;100.00
63111;BME280;49201;53.426;10.300;2023-04-24T10:45:23;99762.09;;;15.00;100.00
63111;BME280;49201;53.426;10.300;2023-04-24T10:47:53;99753.31;;;14.56;100.00
63111;BME280;49201;53.426;10.300;2023-04-24T10:50:19;99795.00;;;14.23;100.00
63111;BME280;49201;53.426;10.300;2023-04-24T10:52:46;99805.16;;;14.33;100.00
63111;BME280;49201;53.426;10.300;2023-04-24T10:55:13;99789.50;;;14.47;100.00
63111;BME280;49201;53.426;10.300;2023-04-24T10:57:39;99758.59;;;15.04;100.00
63111;BME280;49201;53.426;10.300;2023-04-24T11:00:20;99720.25;;;15.36;100.00
63111;BME280;49201;53.426;10.300;2023-04-24T11:02:47;99687.75;;;15.70;97.73
63111;BME280;49201;53.426;10.300;2023-04-24T11:05:19;99615.69;;;15.60;88.41
63111;BME280;49201;53.426;10.300;2023-04-24T11:08:10;99580.75;;;15.85;83.35
63111;BME280;49201;53.426;10.300;2023-04-24T11:13:06;99595.53;;;15.37;86.85
63111;BME280;49201;53.426;10.300;2023-04-24T11:15:32;99627.00;;;15.09;90.41
63111;BME280;49201;53.426;10.300;2023-04-24T11:17:57;99665.00;;;14.98;95.92
63111;BME280;49201;53.426;10.300;2023-04-24T11:20:23;99687.69;;;14.79;97.83
63111;BME280;49201;53.426;10.300;2023-04-24T11:22:52;99703.75;;;14.39;98.58
63111;BME280;49201;53.426;10.300;2023-04-24T11:25:19;99722.66;;;14.38;100.00
63111;BME280;49201;53.426;10.300;2023-04-24T11:27:47;99745.94;;;14.32;100.00
63111;BME280;49201;53.426;10.300;2023-04-24T11:30:19;99774.06;;;14.47;100.00
63111;BME280;49201;53.426;10.300;2023-04-24T11:32:48;99788.09;;;14.23;100.00
63111;BME280;49201;53.426;10.300;2023-04-24T11:35:17;99760.81;;;14.06;100.00
63111;BME280;49201;53.426;10.300;2023-04-24T11:37:53;99759.13;;;14.03;100.00
63111;BME280;49201;53.426;10.300;2023-04-24T11:40:21;99752.09;;;14.22;100.00
63111;BME280;49201;53.426;10.300;2023-04-24T11:42:50;99721.91;;;14.31;97.54
63111;BME280;49201;53.426;10.300;2023-04-24T11:45:22;99705.66;;;14.28;94.95
63111;BME280;49201;53.426;10.300;2023-04-24T11:47:48;99688.16;;;14.48;94.85
63111;BME280;49201;53.426;10.300;2023-04-24T11:50:15;99632.81;;;15.64;88.38
63111;BME280;49201;53.426;10.300;2023-04-24T11:52:43;99546.91;;;15.97;77.65
63111;BME280;49201;53.426;10.300;2023-04-24T11:55:23;99504.44;;;16.75;76.73
63111;BME280;49201;53.426;10.300;2023-04-24T11:57:58;99481.47;;;16.63;74.57
63111;BME280;49201;53.426;10.300;2023-04-24T12:00:29;99479.50;;;17.03;71.71
63111;BME280;49201;53.426;10.300;2023-04-24T12:03:09;99455.16;;;16.49;69.27
63111;BME280;49201;53.426;10.300;2023-04-24T12:05:34;99420.47;;;16.58;65.91
63111;BME280;49201;53.426;10.300;2023-04-24T12:08:00;99410.91;;;16.61;65.42
63111;BME280;49201;53.426;10.300;2023-04-24T12:10:28;99396.69;;;16.76;62.78
63111;BME280;49201;53.426;10.300;2023-04-24T12:12:56;99412.78;;;16.23;64.21
63111;BME280;49201;53.426;10.300;2023-04-24T12:15:22;99442.41;;;16.10;66.59
63111;BME280;49201;53.426;10.300;2023-04-24T12:17:49;99473.28;;;15.79;69.03
63111;BME280;49201;53.426;10.300;2023-04-24T12:20:16;99534.03;;;15.57;74.54
63111;BME280;49201;53.426;10.300;2023-04-24T12:22:46;99534.34;;;15.44;73.49
63111;BME280;49201;53.426;10.300;2023-04-24T12:25:13;99520.66;;;15.78;74.87
63111;BME280;49201;53.426;10.300;2023-04-24T12:27:38;99540.53;;;15.75;75.92
63111;BME280;49201;53.426;10.300;2023-04-24T12:30:05;99565.44;;;15.77;79.11
63111;BME280;49201;53.426;10.300;2023-04-24T12:32:34;99572.13;;;15.46;79.97
63111;BME280;49201;53.426;10.300;2023-04-24T12:35:00;99610.53;;;15.60;83.07
63111;BME280;49201;53.426;10.300;2023-04-24T12:37:31;99629.34;;;15.21;87.06
63111;BME280;49201;53.426;10.300;2023-04-24T12:40:07;99603.69;;;15.15;82.92